Time;durP1;ratioP1;P1;durP2;ratioP2;P2;SDS_P1;SDS_P2;PMS_P1;PMS_P2;Temp;Humidity;BMP_temperature;BMP_pressure;BME280_temperature;BME280_humidity;BME280_pressure;Samples;Min_cycle;Max_cycle;Signal;HPM_P1;HPM_P2
2021/06/06 00:00:55;;;;;;;11.20;8.20;;;16.80;1.00;;;;;;4997624;28;20041;-72
2021/06/06 00:03:28;;;;;;;10.73;8.63;;;16.70;1.00;;;;;;4999892;28;20030;-71
2021/06/06 00:05:59;;;;;;;8.50;7.70;;;16.80;1.00;;;;;;4998984;28;20032;-72
2021/06/06 00:08:26;;;;;;;9.65;8.20;;;16.70;1.00;;;;;;5013871;28;20033;-73
2021/06/06 00:11:02;;;;;;;9.18;8.27;;;16.70;1.00;;;;;;4997200;28;20394;-72
2021/06/06 00:13:29;;;;;;;9.25;8.32;;;16.70;1.00;;;;;;4997984;28;20023;-72
2021/06/06 00:15:54;;;;;;;9.75;8.82;;;16.70;1.00;;;;;;4998100;28;20027;-73
2021/06/06 00:18:21;;;;;;;8.45;7.65;;;16.70;1.00;;;;;;4997598;28;20586;-72
2021/06/06 00:20:46;;;;;;;13.55;7.85;;;16.70;1.00;;;;;;4996207;28;20094;-73
2021/06/06 00:23:12;;;;;;;12.10;8.52;;;16.60;1.00;;;;;;5012385;28;20034;-72
2021/06/06 00:25:38;;;;;;;10.45;8.73;;;16.70;1.00;;;;;;4996695;28;20061;-72
2021/06/06 00:28:05;;;;;;;9.98;8.30;;;16.70;1.00;;;;;;4996503;28;20035;-72
2021/06/06 00:30:32;;;;;;;8.63;7.82;;;16.70;1.00;;;;;;4996641;28;20086;-73
2021/06/06 00:32:57;;;;;;;8.02;7.22;;;16.70;1.00;;;;;;4995387;28;20037;-73
2021/06/06 00:35:24;;;;;;;9.43;8.00;;;16.60;1.00;;;;;;4996960;28;20023;-72
2021/06/06 00:37:50;;;;;;;10.73;8.05;;;16.70;1.00;;;;;;4996712;28;20479;-72
2021/06/06 00:40:21;;;;;;;8.70;7.80;;;16.70;1.00;;;;;;4997018;28;20022;-71
2021/06/06 00:42:47;;;;;;;8.20;7.38;;;16.70;1.00;;;;;;4997830;28;20022;-71
2021/06/06 00:45:16;;;;;;;8.80;7.90;;;16.60;1.00;;;;;;4995570;28;20026;-72
2021/06/06 00:47:42;;;;;;;9.02;7.95;;;16.60;1.00;;;;;;4996541;28;20368;-71
2021/06/06 00:50:31;;;;;;;11.00;8.02;;;16.60;1.00;;;;;;4996038;28;20048;-72
2021/06/06 00:53:02;;;;;;;7.45;6.75;;;16.50;1.00;;;;;;4995838;28;20121;-73
2021/06/06 00:55:27;;;;;;;;;;;16.50;1.00;;;;;;4995879;28;20022;-72
2021/06/06 00:57:54;;;;;;;8.05;7.20;;;16.60;1.00;;;;;;4986449;28;19906;-73
2021/06/06 01:00:34;;;;;;;7.47;6.65;;;16.60;1.00;;;;;;4995709;28;20062;-73
2021/06/06 01:03:01;;;;;;;9.27;7.23;;;16.60;1.00;;;;;;4995685;28;20025;-73
2021/06/06 01:05:38;;;;;;;8.35;7.50;;;16.60;1.00;;;;;;4995923;28;20395;-73
2021/06/06 01:08:09;;;;;;;8.18;7.38;;;16.60;1.00;;;;;;4996065;28;20538;-74
2021/06/06 01:10:36;;;;;;;8.23;7.38;;;16.60;1.00;;;;;;4995822;28;20034;-73
2021/06/06 01:13:15;;;;;;;7.68;6.97;;;16.50;1.00;;;;;;4995784;28;20348;-73
2021/06/06 01:15:43;;;;;;;8.25;7.45;;;16.60;1.00;;;;;;4995815;28;20022;-74
2021/06/06 01:18:22;;;;;;;7.85;6.82;;;16.60;1.00;;;;;;4995754;28;20085;-74
2021/06/06 01:20:50;;;;;;;8.82;6.18;;;16.50;1.00;;;;;;5004058;28;20060;-72
2021/06/06 01:23:33;;;;;;;6.57;5.90;;;16.60;1.00;;;;;;5007143;28;20505;-73
2021/06/06 01:26:05;;;;;;;7.10;5.63;;;16.50;1.00;;;;;;4996002;28;20037;-73
2021/06/06 01:29:02;;;;;;;6.80;6.20;;;16.50;1.00;;;;;;4997204;28;20023;-72
2021/06/06 01:31:31;;;;;;;6.75;5.93;;;16.50;1.00;;;;;;4995570;28;20474;-73
2021/06/06 01:34:01;;;;;;;6.50;5.90;;;16.50;1.00;;;;;;4994933;28;20018;-73
2021/06/06 01:36:32;;;;;;;6.55;4.78;;;16.50;1.00;;;;;;4994986;28;20076;-73
2021/06/06 01:39:00;;;;;;;;;;;16.40;1.00;;;;;;4995580;28;20213;-72
2021/06/06 01:41:35;;;;;;;6.22;5.63;;;16.40;1.00;;;;;;4995295;28;19906;-72
2021/06/06 01:44:06;;;;;;;7.43;6.72;;;16.40;1.00;;;;;;4993731;28;20026;-73
2021/06/06 01:46:39;;;;;;;6.22;5.63;;;16.50;1.00;;;;;;4994916;28;20570;-73
2021/06/06 01:49:06;;;;;;;6.05;5.45;;;16.40;1.00;;;;;;4994443;28;20032;-72
2021/06/06 01:51:37;;;;;;;8.75;5.85;;;16.40;1.00;;;;;;4994525;28;20034;-71
2021/06/06 01:54:06;;;;;;;6.28;5.68;;;16.40;1.00;;;;;;4994806;28;20023;-72
2021/06/06 01:56:35;;;;;;;6.63;4.45;;;16.40;1.00;;;;;;4993148;28;20495;-72
2021/06/06 01:59:07;;;;;;;5.53;5.03;;;16.30;1.00;;;;;;4994975;28;20106;-72
2021/06/06 02:01:33;;;;;;;7.85;5.60;;;16.30;1.00;;;;;;4994836;28;20102;-72
2021/06/06 02:04:01;;;;;;;5.22;4.35;;;16.30;1.00;;;;;;4994702;28;20026;-73
2021/06/06 02:06:46;;;;;;;5.40;4.82;;;16.30;1.00;;;;;;4993201;28;20027;-72
2021/06/06 02:09:17;;;;;;;5.55;5.05;;;16.30;1.00;;;;;;4994319;28;20037;-73
2021/06/06 02:11:51;;;;;;;4.97;4.50;;;16.30;1.00;;;;;;4994207;28;20060;-72
2021/06/06 02:14:22;;;;;;;5.40;4.90;;;16.30;1.00;;;;;;4993874;28;20065;-73
2021/06/06 02:16:53;;;;;;;5.20;4.75;;;16.30;1.00;;;;;;4993973;28;20033;-72
2021/06/06 02:19:19;;;;;;;4.95;4.55;;;16.30;1.00;;;;;;4994780;28;20034;-72
2021/06/06 02:21:45;;;;;;;4.60;4.20;;;16.30;1.00;;;;;;4994826;28;20073;-72
2021/06/06 02:24:10;;;;;;;5.03;4.05;;;16.30;1.00;;;;;;4994741;28;20035;-72
2021/06/06 02:26:48;;;;;;;5.10;4.65;;;16.20;1.00;;;;;;4994540;28;20547;-71
2021/06/06 02:29:31;;;;;;;4.93;4.43;;;16.30;1.00;;;;;;4994486;28;20042;-73
2021/06/06 02:32:13;;;;;;;4.35;3.95;;;16.30;1.00;;;;;;4994887;28;20394;-72
2021/06/06 02:34:56;;;;;;;5.60;4.60;;;16.30;1.00;;;;;;5013783;28;20110;-73
2021/06/06 02:37:28;;;;;;;5.32;4.82;;;16.30;1.00;;;;;;5011535;28;20659;-72
2021/06/06 02:40:02;;;;;;;4.68;4.22;;;16.30;1.00;;;;;;4995512;28;20030;-72
2021/06/06 02:42:35;;;;;;;6.13;4.65;;;16.10;1.00;;;;;;4992857;28;20034;-72
2021/06/06 02:45:14;;;;;;;4.65;4.18;;;16.10;1.00;;;;;;4995019;28;20026;-72
2021/06/06 02:47:41;;;;;;;4.50;4.10;;;16.20;1.00;;;;;;4994005;28;20440;-72
2021/06/06 02:50:23;;;;;;;4.90;4.50;;;16.20;1.00;;;;;;4993090;28;20027;-72
2021/06/06 02:53:02;;;;;;;6.40;4.85;;;16.20;1.00;;;;;;4993560;28;20161;-72
2021/06/06 02:55:34;;;;;;;4.70;4.20;;;16.10;1.00;;;;;;4992455;28;20030;-73
2021/06/06 02:58:07;;;;;;;4.68;4.28;;;16.10;1.00;;;;;;5006128;28;20019;-72
2021/06/06 03:00:37;;;;;;;4.40;4.00;;;16.10;1.00;;;;;;4976475;28;20108;-72
2021/06/06 03:03:10;;;;;;;5.43;4.93;;;16.10;1.00;;;;;;4974126;28;20038;-71
2021/06/06 03:05:36;;;;;;;5.50;4.03;;;16.00;1.00;;;;;;4972655;28;20086;-73
2021/06/06 03:08:06;;;;;;;5.50;4.20;;;16.00;1.00;;;;;;4975779;28;20033;-72
2021/06/06 03:10:34;;;;;;;5.15;4.57;;;15.90;1.00;;;;;;4983467;28;20387;-73
2021/06/06 03:13:12;;;;;;;5.70;4.40;;;15.90;1.00;;;;;;4981520;28;20512;-73
2021/06/06 03:15:42;;;;;;;6.20;4.78;;;15.90;1.00;;;;;;4983128;28;20030;-71
2021/06/06 03:18:09;;;;;;;6.03;5.05;;;15.90;1.00;;;;;;4982913;28;20057;-72
2021/06/06 03:20:42;;;;;;;5.88;4.97;;;15.90;1.00;;;;;;4986857;28;20092;-70
2021/06/06 03:23:11;;;;;;;6.28;4.53;;;15.90;1.00;;;;;;4976511;28;20113;-72
2021/06/06 03:25:57;;;;;;;8.73;6.30;;;15.90;1.00;;;;;;4983468;28;20031;-72
2021/06/06 03:28:30;;;;;;;7.93;5.55;;;15.90;1.00;;;;;;4978829;28;20023;-71
2021/06/06 03:31:03;;;;;;;7.80;5.45;;;15.90;1.00;;;;;;4974362;28;20035;-72
2021/06/06 03:33:45;;;;;;;8.27;5.18;;;15.90;1.00;;;;;;4973946;28;20027;-71
2021/06/06 03:36:12;;;;;;;6.75;5.45;;;15.80;1.00;;;;;;4972567;28;20031;-72
2021/06/06 03:38:37;;;;;;;7.10;5.20;;;15.90;1.00;;;;;;4973437;28;20031;-71
2021/06/06 03:41:03;;;;;;;7.65;4.80;;;15.90;1.00;;;;;;4974026;28;20119;-71
2021/06/06 03:43:29;;;;;;;6.82;4.57;;;15.80;1.00;;;;;;4996829;28;20039;-71
2021/06/06 03:45:55;;;;;;;6.30;5.22;;;15.80;1.00;;;;;;4996878;28;20075;-72
2021/06/06 03:48:21;;;;;;;6.85;4.68;;;15.90;1.00;;;;;;4993735;28;20027;-72
2021/06/06 03:50:51;;;;;;;5.35;4.20;;;15.80;1.00;;;;;;4980024;28;20537;-73
2021/06/06 03:53:18;;;;;;;5.32;4.57;;;15.80;1.00;;;;;;4991267;28;20057;-73
2021/06/06 03:55:44;;;;;;;6.88;4.40;;;15.80;1.00;;;;;;4992757;28;20026;-73
2021/06/06 03:58:11;;;;;;;6.28;4.50;;;15.80;1.00;;;;;;4992808;28;20073;-73
2021/06/06 04:00:43;;;;;;;5.22;4.35;;;15.80;1.00;;;;;;4992904;28;20109;-73
2021/06/06 04:03:10;;;;;;;5.05;4.03;;;15.80;1.00;;;;;;4991492;28;20482;-72
2021/06/06 04:05:36;;;;;;;9.27;4.47;;;15.80;1.00;;;;;;4993219;28;20030;-72
2021/06/06 04:08:06;;;;;;;5.70;3.85;;;15.80;1.00;;;;;;4993327;28;20031;-72
2021/06/06 04:10:32;;;;;;;5.80;3.53;;;15.80;1.00;;;;;;4992803;28;20019;-72
2021/06/06 04:12:58;;;;;;;9.55;3.67;;;15.80;1.00;;;;;;4992787;28;20027;-72
2021/06/06 04:15:24;;;;;;;4.25;3.80;;;15.80;1.00;;;;;;4992525;28;20037;-72
2021/06/06 04:17:50;;;;;;;5.78;3.60;;;15.80;1.00;;;;;;4992479;28;20049;-72
2021/06/06 04:20:19;;;;;;;4.35;3.20;;;15.80;1.00;;;;;;4992650;28;20050;-72
2021/06/06 04:22:44;;;;;;;7.03;3.83;;;15.80;1.00;;;;;;4991792;28;20030;-73
2021/06/06 04:25:16;;;;;;;5.32;3.53;;;15.80;1.00;;;;;;4994583;28;20022;-73
2021/06/06 04:27:42;;;;;;;3.72;2.83;;;15.90;1.00;;;;;;4993034;28;20023;-73
2021/06/06 04:30:10;;;;;;;5.25;3.60;;;15.90;1.00;;;;;;4995240;28;20084;-73
2021/06/06 04:32:36;;;;;;;3.88;2.97;;;15.90;1.00;;;;;;4992766;28;20033;-72
2021/06/06 04:35:02;;;;;;;5.70;3.97;;;15.80;1.00;;;;;;5012177;28;20007;-70
2021/06/06 04:37:28;;;;;;;3.53;2.78;;;15.90;1.00;;;;;;5002352;28;20152;-71
2021/06/06 04:39:54;;;;;;;4.05;2.90;;;15.80;1.00;;;;;;4997363;28;20086;-72
2021/06/06 04:42:21;;;;;;;4.82;3.47;;;15.80;1.00;;;;;;4996186;28;20080;-73
2021/06/06 04:44:47;;;;;;;7.20;3.50;;;15.80;1.00;;;;;;4995853;28;20101;-73
2021/06/06 04:47:14;;;;;;;8.98;4.25;;;15.80;1.00;;;;;;4992149;28;20574;-73
2021/06/06 04:49:41;;;;;;;6.85;3.83;;;15.80;1.00;;;;;;4989755;28;20042;-73
2021/06/06 04:52:09;;;;;;;5.45;3.65;;;15.80;1.00;;;;;;4994544;28;20117;-73
2021/06/06 04:54:35;;;;;;;4.72;3.65;;;15.70;1.00;;;;;;5011258;28;20032;-73
2021/06/06 04:57:02;;;;;;;8.10;4.63;;;15.70;1.00;;;;;;4995910;28;20030;-72
2021/06/06 04:59:27;;;;;;;6.07;4.50;;;15.80;1.00;;;;;;4996123;28;20054;-74
2021/06/06 05:01:53;;;;;;;4.85;4.03;;;15.80;1.00;;;;;;4996262;28;20061;-72
2021/06/06 05:04:19;;;;;;;5.32;4.15;;;15.80;1.00;;;;;;4995199;28;20030;-72
2021/06/06 05:06:45;;;;;;;7.82;4.15;;;15.90;1.00;;;;;;4998840;28;20348;-72
2021/06/06 05:09:10;;;;;;;7.65;3.80;;;15.80;1.00;;;;;;5003108;28;20034;-71
2021/06/06 05:11:36;;;;;;;6.00;4.00;;;15.70;1.00;;;;;;5005430;28;20030;-71
2021/06/06 05:14:03;;;;;;;6.35;4.40;;;15.80;1.00;;;;;;5004078;28;20034;-72
2021/06/06 05:16:29;;;;;;;6.60;3.75;;;15.90;1.00;;;;;;5002696;28;20077;-76
2021/06/06 05:18:56;;;;;;;5.25;3.30;;;15.90;1.00;;;;;;5016677;28;20566;-73
2021/06/06 05:21:23;;;;;;;4.50;3.80;;;15.90;1.00;;;;;;5003922;28;20022;-72
2021/06/06 05:23:49;;;;;;;7.20;3.95;;;15.90;1.00;;;;;;5019535;28;20023;-72
2021/06/06 05:26:15;;;;;;;6.38;4.13;;;15.80;1.00;;;;;;5006258;28;20030;-71
2021/06/06 05:28:40;;;;;;;6.15;4.47;;;15.80;1.00;;;;;;5005644;28;20034;-70
2021/06/06 05:31:07;;;;;;;5.47;4.00;;;15.80;1.00;;;;;;5002373;28;20026;-73
2021/06/06 05:33:33;;;;;;;5.72;4.03;;;15.80;1.00;;;;;;5001017;28;20022;-72
2021/06/06 05:35:59;;;;;;;8.15;4.43;;;15.80;1.00;;;;;;4999991;28;20037;-72
2021/06/06 05:38:27;;;;;;;5.40;4.45;;;15.80;1.00;;;;;;4997464;28;20030;-72
2021/06/06 05:40:54;;;;;;;9.13;4.75;;;15.80;1.00;;;;;;4997721;28;20429;-72
2021/06/06 05:43:19;;;;;;;4.88;4.10;;;15.80;1.00;;;;;;5000084;28;20023;-73
2021/06/06 05:45:47;;;;;;;6.13;5.07;;;15.80;1.00;;;;;;4998977;28;20069;-72
2021/06/06 05:48:13;;;;;;;9.52;5.40;;;15.80;1.00;;;;;;4991410;28;20019;-73
2021/06/06 05:50:42;;;;;;;9.93;5.28;;;15.80;1.00;;;;;;4997287;28;20030;-72
2021/06/06 05:53:09;;;;;;;7.13;5.43;;;15.80;1.00;;;;;;5008417;28;20235;-72
2021/06/06 05:55:35;;;;;;;8.27;5.50;;;15.80;1.00;;;;;;5008512;28;20615;-72
2021/06/06 05:58:01;;;;;;;8.30;5.55;;;15.80;1.00;;;;;;5015046;28;20054;-73
2021/06/06 06:00:32;;;;;;;6.28;4.95;;;15.80;1.00;;;;;;4998645;28;20053;-72
2021/06/06 06:02:58;;;;;;;6.07;5.15;;;15.80;1.00;;;;;;4996576;28;20022;-72
2021/06/06 06:05:24;;;;;;;8.48;5.65;;;15.80;1.00;;;;;;4999159;28;20023;-74
2021/06/06 06:07:51;;;;;;;6.80;6.10;;;15.70;1.00;;;;;;5001270;28;20224;-72
2021/06/06 06:10:24;;;;;;;8.95;6.97;;;15.80;1.00;;;;;;5000067;28;20022;-74
2021/06/06 06:12:49;;;;;;;9.73;6.70;;;15.80;1.00;;;;;;5000816;28;20090;-72
2021/06/06 06:15:16;;;;;;;8.95;7.18;;;15.80;1.00;;;;;;5026792;28;20053;-73
2021/06/06 06:17:42;;;;;;;10.60;6.72;;;15.80;1.00;;;;;;4997675;28;20026;-74
2021/06/06 06:20:13;;;;;;;8.65;7.03;;;15.80;1.00;;;;;;4995721;28;20507;-74
2021/06/06 06:22:38;;;;;;;7.97;7.10;;;15.80;1.00;;;;;;4994123;28;20045;-76
2021/06/06 06:25:08;;;;;;;8.90;7.53;;;15.80;1.00;;;;;;4994734;28;20576;-76
2021/06/06 06:27:34;;;;;;;8.95;6.82;;;15.80;1.00;;;;;;4998965;28;20053;-75
2021/06/06 06:30:00;;;;;;;9.18;7.22;;;15.70;1.00;;;;;;4999717;28;20026;-75
2021/06/06 06:32:27;;;;;;;8.52;6.82;;;15.70;1.00;;;;;;5001660;28;20026;-75
2021/06/06 06:34:53;;;;;;;8.30;7.30;;;15.60;1.00;;;;;;5000375;28;20034;-75
2021/06/06 06:37:21;;;;;;;8.15;6.78;;;15.70;1.00;;;;;;4994888;28;20026;-77
2021/06/06 06:39:48;;;;;;;8.30;7.05;;;15.80;1.00;;;;;;4995686;28;20022;-75
2021/06/06 06:42:13;;;;;;;9.30;7.25;;;15.80;1.00;;;;;;4986308;28;20027;-75
2021/06/06 06:44:39;;;;;;;8.38;7.30;;;15.80;1.00;;;;;;4975801;28;20033;-75
2021/06/06 06:47:04;;;;;;;8.40;6.20;;;15.80;1.00;;;;;;4973962;28;20047;-75
2021/06/06 06:49:30;;;;;;;7.32;6.63;;;15.80;1.00;;;;;;4987638;28;20068;-74
2021/06/06 06:51:56;;;;;;;7.20;6.50;;;15.70;1.00;;;;;;4994904;28;20053;-77
2021/06/06 06:54:22;;;;;;;8.30;6.97;;;15.80;1.00;;;;;;4995134;28;20030;-75
2021/06/06 06:56:48;;;;;;;7.15;6.45;;;15.70;1.00;;;;;;4995364;28;20404;-74
2021/06/06 06:59:16;;;;;;;7.25;6.55;;;15.70;1.00;;;;;;5000622;28;20474;-74
2021/06/06 07:01:42;;;;;;;9.10;6.45;;;15.70;1.00;;;;;;4995218;28;20109;-73
2021/06/06 07:04:07;;;;;;;7.30;6.45;;;15.70;1.00;;;;;;4995943;28;20054;-73
2021/06/06 07:06:33;;;;;;;6.97;6.28;;;15.80;1.00;;;;;;5011597;28;20467;-75
2021/06/06 07:08:59;;;;;;;6.93;6.25;;;15.90;1.00;;;;;;5011124;28;20030;-74
2021/06/06 07:11:25;;;;;;;7.00;6.30;;;15.90;1.00;;;;;;4996421;28;20578;-75
2021/06/06 07:13:51;;;;;;;8.85;6.18;;;15.90;1.00;;;;;;4995190;28;20035;-75
2021/06/06 07:16:18;;;;;;;6.63;5.95;;;15.90;1.00;;;;;;4995879;28;20038;-74
2021/06/06 07:18:46;;;;;;;7.60;6.60;;;15.90;1.00;;;;;;4988860;28;20041;-75
2021/06/06 07:21:15;;;;;;;8.07;6.18;;;15.90;1.00;;;;;;4998028;28;20440;-74
2021/06/06 07:23:44;;;;;;;6.28;5.68;;;16.00;1.00;;;;;;4981126;28;20029;-76
2021/06/06 07:26:18;;;;;;;7.15;5.43;;;16.00;1.00;;;;;;4980329;28;20019;-75
2021/06/06 07:28:43;;;;;;;7.18;5.78;;;16.00;1.00;;;;;;5007053;28;20097;-75
2021/06/06 07:31:12;;;;;;;8.02;5.90;;;16.10;1.00;;;;;;5011361;28;20034;-74
2021/06/06 07:33:42;;;;;;;7.70;6.13;;;16.10;1.00;;;;;;5009040;28;20033;-73
2021/06/06 07:36:11;;;;;;;9.32;7.00;;;16.20;1.00;;;;;;5002227;28;20069;-74
2021/06/06 07:38:37;;;;;;;8.93;6.05;;;16.20;1.00;;;;;;5014622;28;20081;-76
2021/06/06 07:41:04;;;;;;;8.00;6.80;;;16.30;1.00;;;;;;4995012;28;20027;-74
2021/06/06 07:43:29;;;;;;;10.15;7.00;;;16.20;1.00;;;;;;4997841;28;20031;-74
2021/06/06 07:45:55;;;;;;;9.30;6.55;;;16.20;1.00;;;;;;4994582;28;20022;-76
2021/06/06 07:48:22;;;;;;;9.75;6.70;;;16.30;1.00;;;;;;4983047;28;20023;-75
2021/06/06 07:50:49;;;;;;;10.27;7.28;;;16.30;1.00;;;;;;4976124;28;20061;-75
2021/06/06 07:53:16;;;;;;;8.90;6.70;;;16.40;1.00;;;;;;4975750;28;20056;-72
2021/06/06 07:55:42;;;;;;;9.50;7.13;;;16.50;1.00;;;;;;4996568;28;20026;-71
2021/06/06 07:58:08;;;;;;;9.63;7.22;;;16.30;1.00;;;;;;4997518;28;20049;-72
2021/06/06 08:00:42;;;;;;;9.93;7.50;;;16.40;1.00;;;;;;4996858;28;20030;-72
2021/06/06 08:03:09;;;;;;;9.57;7.30;;;16.40;1.00;;;;;;4995228;28;20170;-72
2021/06/06 08:05:36;;;;;;;10.75;8.55;;;16.20;1.00;;;;;;5012059;28;20029;-72
2021/06/06 08:08:03;;;;;;;10.85;8.50;;;16.10;1.00;;;;;;5016068;28;20030;-72
2021/06/06 08:10:31;;;;;;;8.63;7.47;;;16.10;1.00;;;;;;5020447;28;20018;-71
2021/06/06 08:12:57;;;;;;;10.45;8.25;;;16.10;1.00;;;;;;5018604;28;20057;-72
2021/06/06 08:15:24;;;;;;;12.32;8.85;;;16.00;1.00;;;;;;5001967;28;20027;-72
2021/06/06 08:17:49;;;;;;;12.48;8.73;;;16.00;1.00;;;;;;5000477;28;20069;-72
2021/06/06 08:20:25;;;;;;;12.10;8.40;;;16.10;1.00;;;;;;4999205;28;20030;-72
2021/06/06 08:22:51;;;;;;;9.70;8.07;;;16.10;1.00;;;;;;4998516;28;20037;-72
2021/06/06 08:25:18;;;;;;;9.40;7.60;;;16.10;1.00;;;;;;4997561;28;20364;-71
2021/06/06 08:27:43;;;;;;;10.88;8.55;;;16.10;1.00;;;;;;4997071;28;20030;-72
2021/06/06 08:30:13;;;;;;;12.48;8.32;;;16.00;1.00;;;;;;4997975;28;20558;-73
2021/06/06 08:32:39;;;;;;;11.55;8.45;;;16.10;1.00;;;;;;4997574;28;20023;-72
2021/06/06 08:35:07;;;;;;;13.13;8.23;;;16.10;1.00;;;;;;4997315;28;20364;-72
2021/06/06 08:37:32;;;;;;;9.48;7.72;;;16.10;1.00;;;;;;4997673;28;20026;-72
2021/06/06 08:39:58;;;;;;;12.68;9.23;;;16.10;1.00;;;;;;4997540;28;20113;-73
2021/06/06 08:42:29;;;;;;;11.45;8.95;;;16.10;1.00;;;;;;4998298;28;20077;-73
2021/06/06 08:44:57;;;;;;;;;;;16.20;1.00;;;;;;5000334;28;20022;-72
2021/06/06 08:47:27;;;;;;;12.90;8.80;;;16.10;1.00;;;;;;5001975;28;19906;-72
2021/06/06 08:49:57;;;;;;;9.98;8.30;;;16.30;1.00;;;;;;4999127;28;20042;-72
2021/06/06 08:52:41;;;;;;;13.43;10.43;;;16.40;1.00;;;;;;5002227;28;20022;-73
2021/06/06 08:55:36;;;;;;;13.40;10.65;;;16.40;1.00;;;;;;4997791;28;20106;-72
2021/06/06 08:58:12;;;;;;;14.68;9.15;;;16.50;1.00;;;;;;4998087;28;20022;-73
2021/06/06 09:00:43;;;;;;;14.55;10.65;;;16.40;1.00;;;;;;4997643;28;20284;-72
2021/06/06 09:03:13;;;;;;;12.60;9.80;;;16.40;1.00;;;;;;4996544;28;20026;-71
2021/06/06 09:05:42;;;;;;;14.70;10.52;;;16.30;1.00;;;;;;4997388;28;20037;-71
2021/06/06 09:08:28;;;;;;;12.50;10.73;;;16.50;1.00;;;;;;4997798;28;20033;-71
2021/06/06 09:10:58;;;;;;;13.15;10.23;;;16.50;1.00;;;;;;4996347;28;20022;-72
2021/06/06 09:13:27;;;;;;;13.88;10.57;;;16.30;1.00;;;;;;4996677;28;20086;-72
2021/06/06 09:15:55;;;;;;;13.77;10.48;;;16.30;1.00;;;;;;4997537;28;20018;-71
2021/06/06 09:18:27;;;;;;;13.82;10.93;;;16.30;1.00;;;;;;4996587;28;20030;-71
2021/06/06 09:20:54;;;;;;;11.85;9.38;;;16.50;1.00;;;;;;4997554;28;20045;-71
2021/06/06 09:23:30;;;;;;;13.60;10.60;;;16.40;1.00;;;;;;4997979;28;20487;-73
2021/06/06 09:26:24;;;;;;;13.13;10.52;;;16.30;1.00;;;;;;4997900;28;20568;-72
2021/06/06 09:29:21;;;;;;;14.85;11.27;;;16.30;1.00;;;;;;4996464;28;20498;-71
2021/06/06 09:31:48;;;;;;;14.55;12.50;;;16.30;1.00;;;;;;4995672;28;20049;-72
2021/06/06 09:34:22;;;;;;;15.35;11.55;;;16.40;1.00;;;;;;4996150;28;20390;-73
2021/06/06 09:37:11;;;;;;;17.00;11.70;;;16.40;1.00;;;;;;5018615;28;20026;-71
2021/06/06 09:39:43;;;;;;;14.85;10.15;;;16.60;1.00;;;;;;5019174;28;20025;-72
2021/06/06 09:42:26;;;;;;;13.90;10.75;;;16.90;1.00;;;;;;5019494;28;20033;-71
2021/06/06 09:45:05;;;;;;;12.57;10.75;;;16.80;1.00;;;;;;4997217;28;20439;-73
2021/06/06 09:47:31;;;;;;;14.40;11.23;;;16.70;1.00;;;;;;5012378;28;20101;-71
2021/06/06 09:50:11;;;;;;;12.90;10.52;;;16.60;1.00;;;;;;4996861;28;20502;-73
2021/06/06 09:52:43;;;;;;;17.17;13.40;;;16.60;1.00;;;;;;4995857;28;20117;-73
2021/06/06 09:55:27;;;;;;;19.08;14.57;;;16.70;1.00;;;;;;4996611;28;20030;-73
2021/06/06 09:58:07;;;;;;;20.45;15.68;;;16.60;1.00;;;;;;4996582;28;20026;-73
2021/06/06 10:00:54;;;;;;;18.90;15.68;;;16.70;1.00;;;;;;4996317;28;20026;-74
2021/06/06 10:03:23;;;;;;;22.77;17.35;;;16.80;1.00;;;;;;4996183;28;20096;-73
2021/06/06 10:05:49;;;;;;;19.10;16.42;;;16.90;1.00;;;;;;4995880;28;20034;-72
2021/06/06 10:08:21;;;;;;;23.30;17.85;;;17.00;1.00;;;;;;5012098;28;20045;-72
2021/06/06 10:10:51;;;;;;;21.02;17.35;;;17.00;1.00;;;;;;4998222;28;20479;-73
2021/06/06 10:13:33;;;;;;;24.08;19.27;;;17.10;1.00;;;;;;4995743;28;20032;-72
2021/06/06 10:16:00;;;;;;;25.08;19.77;;;17.30;1.00;;;;;;4996018;28;20030;-74
2021/06/06 10:18:28;;;;;;;24.63;19.65;;;17.40;1.00;;;;;;4997093;28;20368;-77
2021/06/06 10:21:14;;;;;;;28.60;22.02;;;17.60;1.00;;;;;;4996401;28;20060;-74
2021/06/06 10:23:46;;;;;;;27.38;20.17;;;17.20;1.00;;;;;;4999782;28;20057;-73
2021/06/06 10:26:17;;;;;;;24.88;20.20;;;17.20;1.00;;;;;;4997173;28;20050;-75
2021/06/06 10:28:50;;;;;;;;;;;17.30;1.00;;;;;;4997251;28;20026;-74
2021/06/06 10:31:33;;;;;;;25.92;19.42;;;17.40;1.00;;;;;;4996567;28;19963;-74
2021/06/06 10:34:02;;;;;;;27.35;21.38;;;17.40;1.00;;;;;;5000996;28;20034;-74
2021/06/06 10:36:29;;;;;;;27.75;21.85;;;17.30;1.00;;;;;;4994517;28;20053;-73
2021/06/06 10:38:55;;;;;;;28.95;22.00;;;16.90;1.00;;;;;;4997682;28;20033;-72
2021/06/06 10:41:36;;;;;;;28.48;22.67;;;16.90;1.00;;;;;;4995561;28;20026;-72
2021/06/06 10:44:19;;;;;;;29.77;22.83;;;17.00;1.00;;;;;;4995507;28;20387;-74
2021/06/06 10:46:53;;;;;;;30.55;23.95;;;17.00;1.00;;;;;;4996584;28;20368;-74
2021/06/06 10:49:23;;;;;;;35.28;25.33;;;17.00;1.00;;;;;;4996758;28;20031;-76
2021/06/06 10:51:51;;;;;;;32.03;23.23;;;17.10;1.00;;;;;;4996710;28;20042;-73
2021/06/06 10:54:29;;;;;;;40.40;26.30;;;17.40;1.00;;;;;;4996334;28;20034;-74
2021/06/06 10:56:59;;;;;;;34.25;25.25;;;17.40;1.00;;;;;;4995835;28;20031;-74
2021/06/06 10:59:48;;;;;;;33.10;24.87;;;17.30;1.00;;;;;;4997343;28;20026;-75
2021/06/06 11:02:26;;;;;;;35.35;26.70;;;17.50;1.00;;;;;;4997295;28;20348;-73
2021/06/06 11:04:55;;;;;;;36.72;27.00;;;17.40;1.00;;;;;;4995082;28;20399;-72
2021/06/06 11:07:44;;;;;;;38.40;27.00;;;17.30;1.00;;;;;;4996535;28;20026;-73
2021/06/06 11:10:16;;;;;;;42.13;28.15;;;17.00;1.00;;;;;;4996650;28;20038;-74
2021/06/06 11:12:42;;;;;;;36.90;28.52;;;17.10;1.00;;;;;;4994298;28;20030;-72
2021/06/06 11:15:32;;;;;;;42.92;30.85;;;17.30;1.00;;;;;;4995307;28;20041;-74
2021/06/06 11:18:15;;;;;;;50.53;31.63;;;17.10;1.00;;;;;;4994429;28;20022;-72
2021/06/06 11:20:55;;;;;;;51.35;32.80;;;16.90;1.00;;;;;;4976603;28;20507;-75
2021/06/06 11:23:36;;;;;;;54.72;33.58;;;17.00;1.00;;;;;;4992870;28;20029;-73
2021/06/06 11:26:20;;;;;;;50.80;34.35;;;16.70;1.00;;;;;;4990970;28;20034;-71
2021/06/06 11:28:47;;;;;;;51.10;33.65;;;16.80;1.00;;;;;;4974782;28;20499;-73
2021/06/06 11:31:29;;;;;;;55.92;35.15;;;16.90;1.00;;;;;;4974689;28;20496;-72
2021/06/06 11:34:03;;;;;;;56.42;35.75;;;16.70;1.00;;;;;;4973374;28;20491;-73
2021/06/06 11:36:41;;;;;;;67.55;38.10;;;16.60;1.00;;;;;;4975116;28;20034;-73
2021/06/06 11:39:17;;;;;;;61.83;38.30;;;16.50;1.00;;;;;;4987879;28;20026;-73
2021/06/06 11:41:45;;;;;;;61.53;38.30;;;16.40;1.00;;;;;;4996240;28;20030;-73
2021/06/06 11:44:14;;;;;;;59.03;38.50;;;16.60;1.00;;;;;;4998742;28;20216;-75
2021/06/06 11:46:49;;;;;;;61.65;37.30;;;16.60;1.00;;;;;;5011081;28;20066;-71
2021/06/06 11:49:45;;;;;;;59.58;38.25;;;16.60;1.00;;;;;;5017914;28;20034;-80
2021/06/06 11:52:25;;;;;;;58.20;35.85;;;16.70;1.00;;;;;;5018597;28;20098;-78
2021/06/06 11:54:58;;;;;;;51.30;33.78;;;17.10;1.00;;;;;;5018965;28;20042;-77
2021/06/06 11:57:39;;;;;;;45.90;30.48;;;17.10;1.00;;;;;;5018517;28;20057;-77
2021/06/06 12:00:20;;;;;;;44.67;30.70;;;17.20;1.00;;;;;;5017018;28;20045;-82
2021/06/06 12:02:46;;;;;;;44.00;28.87;;;17.10;1.00;;;;;;5014549;28;20046;-82
2021/06/06 12:05:25;;;;;;;44.88;29.08;;;17.20;1.00;;;;;;5015043;28;20033;-81
2021/06/06 12:07:52;;;;;;;43.03;28.63;;;17.30;1.00;;;;;;5016508;28;20018;-79
2021/06/06 12:10:25;;;;;;;36.60;26.98;;;17.30;1.00;;;;;;5017415;28;20102;-79
2021/06/06 12:12:56;;;;;;;38.97;27.60;;;17.20;1.00;;;;;;5017424;28;20022;-78
2021/06/06 12:15:25;;;;;;;;;;;17.40;1.00;;;;;;5018150;28;20030;-76
2021/06/06 12:18:11;;;;;;;39.08;27.10;;;17.20;1.00;;;;;;5009669;28;19897;-77
2021/06/06 12:21:11;;;;;;;35.08;25.90;;;17.40;1.00;;;;;;5015443;28;20038;-79
2021/06/06 12:23:42;;;;;;;38.25;27.10;;;17.40;1.00;;;;;;5005392;28;20046;-77
2021/06/06 12:26:16;;;;;;;36.03;26.67;;;17.60;1.00;;;;;;5020392;28;20053;-77
2021/06/06 12:28:46;;;;;;;35.50;27.10;;;17.50;1.00;;;;;;5020856;28;20014;-77
2021/06/06 12:31:22;;;;;;;34.10;26.58;;;17.40;1.00;;;;;;5020653;28;20022;-78
2021/06/06 12:33:48;;;;;;;33.47;26.10;;;17.50;1.00;;;;;;5020809;28;20097;-77
2021/06/06 12:36:24;;;;;;;34.65;25.30;;;17.60;1.00;;;;;;5019723;28;20015;-80
2021/06/06 12:38:55;;;;;;;29.90;23.13;;;17.60;1.00;;;;;;5020482;28;20014;-79
2021/06/06 12:41:21;;;;;;;;;;;17.90;1.00;;;;;;5020185;28;20045;-80
2021/06/06 12:43:50;;;;;;;32.45;24.30;;;18.10;1.00;;;;;;5035092;28;19898;-82
2021/06/06 12:46:17;;;;;;;30.67;25.83;;;18.20;1.00;;;;;;5019250;28;20018;-79
2021/06/06 12:49:03;;;;;;;32.65;25.88;;;18.10;1.00;;;;;;5016676;28;20040;-78
2021/06/06 12:51:39;;;;;;;31.88;24.77;;;18.00;1.00;;;;;;5015261;28;20058;-80
2021/06/06 12:54:38;;;;;;;34.53;26.27;;;17.90;1.00;;;;;;5013626;28;20026;-80
2021/06/06 12:57:19;;;;;;;37.63;26.88;;;17.90;1.00;;;;;;5014017;28;20026;-80
2021/06/06 12:59:46;;;;;;;33.87;26.80;;;17.70;1.00;;;;;;5012704;28;20137;-80
2021/06/06 13:02:17;;;;;;;39.75;28.98;;;17.70;1.00;;;;;;5011886;28;20383;-79
2021/06/06 13:04:44;;;;;;;40.60;29.38;;;17.70;1.00;;;;;;5011426;28;20388;-82
2021/06/06 13:07:28;;;;;;;41.78;29.35;;;17.60;1.00;;;;;;5012672;28;20025;-79
2021/06/06 13:09:55;;;;;;;42.33;31.05;;;17.70;1.00;;;;;;5015879;28;20026;-82